createdAt,value
2023-05-03T00:01:17.619Z,8.75
2023-05-03T00:03:23.959Z,9.40
2023-05-03T00:05:29.699Z,9.18
2023-05-03T00:07:37.376Z,9.85
2023-05-03T00:09:43.136Z,9.48
2023-05-03T00:11:48.413Z,9.82
2023-05-03T00:13:53.481Z,9.73
2023-05-03T00:15:58.736Z,9.43
2023-05-03T00:18:03.861Z,10.30
2023-05-03T00:20:12.199Z,9.70
2023-05-03T00:22:17.758Z,9.52
2023-05-03T00:24:25.360Z,9.38
2023-05-03T00:26:31.445Z,10.05
2023-05-03T00:28:36.567Z,9.35
2023-05-03T00:30:41.722Z,9.50
2023-05-03T00:32:46.913Z,9.63
2023-05-03T00:34:56.722Z,8.48
2023-05-03T00:37:02.262Z,9.75
2023-05-03T00:39:07.366Z,8.40
2023-05-03T00:41:15.878Z,8.27
2023-05-03T00:43:21.143Z,8.48
2023-05-03T00:45:26.437Z,9.35
2023-05-03T00:47:31.901Z,8.02
2023-05-03T00:49:37.364Z,9.10
2023-05-03T00:51:43.749Z,8.52
2023-05-03T00:53:49.443Z,8.82
2023-05-03T00:55:56.676Z,7.93
2023-05-03T00:58:05.951Z,8.15
2023-05-03T01:00:13.693Z,6.85
2023-05-03T01:02:19.085Z,7.43
2023-05-03T01:04:26.192Z,8.35
2023-05-03T01:06:42.176Z,7.68
2023-05-03T01:08:53.662Z,8.15
2023-05-03T01:11:07.417Z,8.80
2023-05-03T01:13:25.480Z,9.18
2023-05-03T01:16:02.844Z,7.95
2023-05-03T01:18:17.936Z,8.23
2023-05-03T01:20:28.496Z,8.40
2023-05-03T01:22:49.619Z,8.05
2023-05-03T01:25:04.532Z,9.00
2023-05-03T01:27:09.636Z,9.35
2023-05-03T01:29:14.676Z,8.48
2023-05-03T01:31:26.787Z,10.10
2023-05-03T01:33:46.430Z,8.98
2023-05-03T01:36:00.323Z,9.20
2023-05-03T01:38:09.218Z,9.63
2023-05-03T01:40:19.962Z,9.32
2023-05-03T01:42:27.304Z,9.40
2023-05-03T01:44:33.318Z,9.00
2023-05-03T01:46:44.357Z,9.98
2023-05-03T01:48:50.878Z,9.07
2023-05-03T01:50:56.224Z,9.55
2023-05-03T01:53:02.933Z,8.07
2023-05-03T01:55:09.687Z,9.65
2023-05-03T01:57:17.349Z,10.32
2023-05-03T01:59:22.371Z,9.23
2023-05-03T02:01:27.717Z,8.48
2023-05-03T02:03:33.442Z,8.57
2023-05-03T02:05:38.623Z,8.23
2023-05-03T02:07:43.720Z,8.75
2023-05-03T02:09:49.045Z,8.25
2023-05-03T02:11:55.677Z,8.48
2023-05-03T02:14:03.812Z,9.68
2023-05-03T02:16:09.756Z,8.77
2023-05-03T02:18:16.882Z,9.00
2023-05-03T02:20:22.259Z,9.18
2023-05-03T02:22:27.514Z,8.93
2023-05-03T02:24:36.364Z,9.98
2023-05-03T02:26:41.463Z,10.00
2023-05-03T02:28:48.575Z,10.48
2023-05-03T02:30:56.209Z,8.90
2023-05-03T02:33:02.940Z,10.50
2023-05-03T02:35:09.896Z,9.73
2023-05-03T02:37:14.901Z,9.30
2023-05-03T02:39:20.454Z,9.80
2023-05-03T02:41:25.697Z,9.68
2023-05-03T02:43:31.940Z,10.02
2023-05-03T02:45:39.156Z,8.82
2023-05-03T02:47:47.149Z,10.38
2023-05-03T02:49:53.916Z,8.50
2023-05-03T02:51:59.486Z,8.85
2023-05-03T02:54:04.800Z,9.75
2023-05-03T02:56:13.002Z,9.18
2023-05-03T02:58:18.196Z,7.22
2023-05-03T03:00:23.787Z,8.05
2023-05-03T03:02:29.324Z,8.63
2023-05-03T03:04:37.453Z,7.57
2023-05-03T03:06:42.798Z,9.68
2023-05-03T03:08:47.837Z,8.73
2023-05-03T03:10:53.110Z,8.85
2023-05-03T03:12:58.324Z,6.97
2023-05-03T03:15:13.493Z,8.27
2023-05-03T03:17:18.669Z,9.27
2023-05-03T03:19:23.724Z,9.13
2023-05-03T03:21:32.901Z,9.23
2023-05-03T03:23:37.944Z,9.23
2023-05-03T03:25:45.153Z,8.80
2023-05-03T03:27:50.303Z,9.20
2023-05-03T03:29:55.566Z,8.60
2023-05-03T03:32:00.778Z,9.60
2023-05-03T03:34:06.149Z,9.25
2023-05-03T03:36:12.278Z,8.77
2023-05-03T03:38:23.229Z,10.00
2023-05-03T03:40:35.341Z,9.70
2023-05-03T03:42:40.761Z,7.97
2023-05-03T03:44:46.046Z,8.55
2023-05-03T03:46:51.766Z,8.35
2023-05-03T03:48:57.432Z,8.55
2023-05-03T03:51:05.332Z,8.95
2023-05-03T03:53:16.788Z,9.48
2023-05-03T03:55:25.352Z,9.45
2023-05-03T03:57:32.895Z,8.93
2023-05-03T03:59:37.952Z,10.35
2023-05-03T04:01:43.033Z,9.18
2023-05-03T04:03:49.797Z,8.75
2023-05-03T04:05:56.165Z,9.48
2023-05-03T04:08:01.388Z,9.13
2023-05-03T04:10:11.078Z,9.82
2023-05-03T04:12:20.996Z,9.13
2023-05-03T04:14:26.106Z,8.48
2023-05-03T04:16:31.814Z,9.57
2023-05-03T04:18:39.751Z,8.65
2023-05-03T04:20:46.864Z,9.25
2023-05-03T04:22:53.934Z,8.93
2023-05-03T04:25:02.898Z,9.00
2023-05-03T04:27:09.413Z,9.32
2023-05-03T04:29:20.458Z,10.57
2023-05-03T04:31:26.235Z,9.35
2023-05-03T04:33:32.936Z,8.82
2023-05-03T04:35:41.552Z,10.38
2023-05-03T04:37:50.557Z,9.27
2023-05-03T04:40:00.036Z,9.75
2023-05-03T04:42:05.116Z,9.73
2023-05-03T04:44:10.436Z,10.45
2023-05-03T04:46:18.718Z,10.43
2023-05-03T04:48:24.759Z,10.43
2023-05-03T04:50:30.226Z,10.52
2023-05-03T04:52:35.293Z,11.25
2023-05-03T04:54:40.350Z,10.98
2023-05-03T04:56:45.383Z,11.10
2023-05-03T04:58:55.913Z,10.98
2023-05-03T05:01:02.588Z,11.55
2023-05-03T05:03:12.472Z,11.05
2023-05-03T05:05:18.924Z,11.25
2023-05-03T05:07:26.123Z,11.27
2023-05-03T05:09:32.532Z,12.63
2023-05-03T05:11:40.572Z,11.55
2023-05-03T05:13:46.305Z,11.40
2023-05-03T05:15:51.508Z,11.90
2023-05-03T05:17:57.114Z,11.35
2023-05-03T05:20:07.358Z,11.50
2023-05-03T05:22:13.229Z,11.45
2023-05-03T05:24:25.132Z,11.60
2023-05-03T05:26:30.757Z,11.13
2023-05-03T05:28:36.587Z,12.02
2023-05-03T05:30:41.739Z,12.00
2023-05-03T05:32:46.887Z,11.65
2023-05-03T05:34:55.696Z,11.82
2023-05-03T05:37:07.513Z,12.13
2023-05-03T05:39:13.375Z,10.93
2023-05-03T05:41:19.174Z,11.82
2023-05-03T05:43:25.084Z,12.40
2023-05-03T05:45:30.351Z,12.60
2023-05-03T05:47:36.341Z,12.60
2023-05-03T05:49:42.045Z,11.43
2023-05-03T05:51:47.736Z,11.55
2023-05-03T05:53:55.931Z,11.48
2023-05-03T05:56:02.378Z,11.43
2023-05-03T05:58:12.109Z,12.52
2023-05-03T06:00:24.730Z,12.55
2023-05-03T06:02:29.896Z,12.52
2023-05-03T06:04:36.318Z,11.93
2023-05-03T06:06:41.613Z,13.00
2023-05-03T06:08:49.883Z,12.27
2023-05-03T06:10:57.589Z,12.63
2023-05-03T06:13:05.177Z,13.20
2023-05-03T06:15:12.965Z,13.48
2023-05-03T06:17:18.386Z,14.25
2023-05-03T06:19:24.870Z,11.80
2023-05-03T06:21:31.259Z,12.18
2023-05-03T06:23:37.952Z,12.13
2023-05-03T06:25:43.041Z,12.68
2023-05-03T06:27:50.866Z,12.65
2023-05-03T06:29:59.197Z,11.07
2023-05-03T06:32:04.940Z,12.27
2023-05-03T06:34:10.943Z,12.73
2023-05-03T06:36:18.639Z,12.73
2023-05-03T06:38:23.991Z,11.43
2023-05-03T06:40:29.285Z,12.55
2023-05-03T06:42:34.317Z,11.45
2023-05-03T06:45:00.411Z,11.27
2023-05-03T06:47:05.529Z,11.15
2023-05-03T06:49:11.421Z,11.25
2023-05-03T06:51:16.549Z,10.98
2023-05-03T06:53:21.569Z,10.80
2023-05-03T06:55:26.784Z,9.55
2023-05-03T06:57:31.854Z,10.50
2023-05-03T06:59:37.124Z,9.65
2023-05-03T07:01:44.765Z,9.27
2023-05-03T07:03:50.168Z,10.07
2023-05-03T07:05:55.811Z,8.40
2023-05-03T07:08:00.880Z,9.55
2023-05-03T07:10:06.656Z,8.63
2023-05-03T07:12:12.140Z,8.02
2023-05-03T07:14:17.229Z,8.25
2023-05-03T07:16:22.831Z,7.68
2023-05-03T07:18:30.903Z,6.97
2023-05-03T07:20:36.228Z,6.45
2023-05-03T07:22:41.287Z,5.38
2023-05-03T07:24:46.354Z,5.57
2023-05-03T07:26:51.368Z,5.50
2023-05-03T07:28:56.753Z,4.85
2023-05-03T07:31:02.540Z,5.80
2023-05-03T07:33:08.386Z,5.07
2023-05-03T07:35:16.881Z,4.72
2023-05-03T07:37:23.517Z,5.35
2023-05-03T07:39:28.678Z,5.40
2023-05-03T07:41:33.890Z,5.20
2023-05-03T07:43:38.974Z,4.75
2023-05-03T07:45:44.039Z,4.28
2023-05-03T07:47:49.436Z,4.68
2023-05-03T07:49:54.481Z,4.85
2023-05-03T07:52:02.144Z,4.22
2023-05-03T07:54:07.853Z,4.57
2023-05-03T07:56:13.393Z,4.57
2023-05-03T07:58:23.205Z,4.18
2023-05-03T08:00:33.921Z,5.35
2023-05-03T08:02:39.099Z,4.88
2023-05-03T08:04:44.372Z,4.82
2023-05-03T08:06:50.198Z,4.20
2023-05-03T08:08:57.867Z,4.70
2023-05-03T08:11:02.880Z,4.63
2023-05-03T08:13:08.777Z,5.03
2023-05-03T08:15:14.082Z,4.45
2023-05-03T08:17:19.398Z,5.63
2023-05-03T08:19:24.447Z,4.30
2023-05-03T08:21:30.417Z,4.40
2023-05-03T08:23:35.682Z,4.43
2023-05-03T08:25:43.611Z,4.10
2023-05-03T08:27:48.884Z,4.50
2023-05-03T08:29:53.924Z,4.93
2023-05-03T08:31:59.131Z,5.10
2023-05-03T08:34:05.135Z,4.70
2023-05-03T08:36:11.138Z,4.55
2023-05-03T08:38:17.326Z,4.28
2023-05-03T08:40:24.888Z,5.40
2023-05-03T08:42:33.959Z,4.28
2023-05-03T08:44:44.669Z,4.25
2023-05-03T08:46:49.797Z,4.53
2023-05-03T08:48:57.015Z,4.30
2023-05-03T08:51:07.269Z,4.05
2023-05-03T08:53:13.401Z,4.93
2023-05-03T08:55:19.281Z,4.72
2023-05-03T08:57:26.926Z,4.25
2023-05-03T08:59:34.559Z,5.13
2023-05-03T09:01:40.511Z,3.78
2023-05-03T09:03:53.335Z,4.13
2023-05-03T09:06:02.175Z,3.60
2023-05-03T09:08:10.026Z,4.15
2023-05-03T09:10:26.443Z,3.85
2023-05-03T09:12:41.443Z,4.72
2023-05-03T09:14:51.007Z,4.05
2023-05-03T09:16:56.332Z,4.57
2023-05-03T09:19:03.499Z,4.20
2023-05-03T09:21:08.995Z,4.25
2023-05-03T09:23:14.054Z,4.18
2023-05-03T09:25:19.443Z,4.32
2023-05-03T09:27:28.077Z,5.38
2023-05-03T09:29:36.256Z,4.45
2023-05-03T09:32:02.979Z,4.68
2023-05-03T09:34:25.290Z,4.45
2023-05-03T09:36:31.595Z,3.80
2023-05-03T09:38:39.403Z,4.18
2023-05-03T09:40:51.107Z,4.95
2023-05-03T09:43:09.968Z,4.47
2023-05-03T09:45:15.787Z,4.22
2023-05-03T09:47:25.653Z,3.88
2023-05-03T09:49:30.940Z,4.00
2023-05-03T09:51:36.733Z,3.83
2023-05-03T09:53:43.320Z,4.00
2023-05-03T09:55:50.968Z,3.40
2023-05-03T09:57:58.129Z,3.67
2023-05-03T10:00:03.759Z,4.03
2023-05-03T10:02:18.049Z,3.47
2023-05-03T10:04:29.807Z,3.60
2023-05-03T10:06:39.049Z,3.65
2023-05-03T10:08:49.674Z,3.72
2023-05-03T10:10:56.350Z,4.10
2023-05-03T10:13:02.498Z,4.03
2023-05-03T10:15:10.784Z,3.20
2023-05-03T10:17:29.259Z,3.70
2023-05-03T10:19:53.605Z,3.45
2023-05-03T10:22:08.154Z,4.20
2023-05-03T10:24:16.409Z,3.78
2023-05-03T10:26:22.706Z,3.67
2023-05-03T10:28:27.949Z,3.20
2023-05-03T10:30:35.196Z,3.15
2023-05-03T10:32:43.573Z,3.30
2023-05-03T10:34:58.721Z,3.60
2023-05-03T10:37:06.361Z,3.30
2023-05-03T10:39:17.927Z,3.28
2023-05-03T10:41:28.049Z,3.10
2023-05-03T10:43:47.242Z,3.85
2023-05-03T10:45:54.557Z,3.35
2023-05-03T10:48:23.242Z,3.70
2023-05-03T10:50:34.344Z,3.42
2023-05-03T10:52:50.742Z,3.47
2023-05-03T10:54:55.744Z,3.00
2023-05-03T10:57:01.937Z,3.50
2023-05-03T10:59:07.224Z,3.60
2023-05-03T11:01:14.773Z,3.22
2023-05-03T11:03:54.538Z,3.20
2023-05-03T11:06:03.326Z,3.10
2023-05-03T11:08:13.888Z,3.22
2023-05-03T11:10:20.587Z,3.10
2023-05-03T11:12:25.636Z,3.35
2023-05-03T11:14:30.672Z,2.90
2023-05-03T11:16:36.726Z,2.92
2023-05-03T11:18:42.428Z,2.85
2023-05-03T11:20:48.024Z,3.17
2023-05-03T11:22:56.112Z,3.15
2023-05-03T11:25:01.558Z,3.45
2023-05-03T11:27:07.964Z,2.80
2023-05-03T11:29:14.727Z,3.00
2023-05-03T11:31:19.792Z,2.80
2023-05-03T11:33:25.153Z,2.80
2023-05-03T11:35:33.357Z,3.60
2023-05-03T11:37:38.840Z,4.05
2023-05-03T11:39:47.992Z,3.25
2023-05-03T11:42:07.374Z,4.82
2023-05-03T11:44:17.579Z,3.53
2023-05-03T11:46:29.426Z,3.10
2023-05-03T11:48:35.532Z,3.00
2023-05-03T11:50:54.658Z,2.72
2023-05-03T11:53:00.114Z,2.75
2023-05-03T11:55:11.414Z,4.22
2023-05-03T11:57:17.478Z,2.60
2023-05-03T11:59:22.769Z,3.22
2023-05-03T12:01:29.982Z,2.88
2023-05-03T12:03:36.800Z,2.35
2023-05-03T12:05:44.363Z,2.90
2023-05-03T12:07:50.611Z,4.72
2023-05-03T12:10:10.658Z,2.85
2023-05-03T12:12:30.230Z,6.70
2023-05-03T12:14:59.856Z,3.08
2023-05-03T12:17:05.191Z,3.13
2023-05-03T12:19:12.475Z,2.70
2023-05-03T12:23:28.795Z,2.90
2023-05-03T12:25:38.771Z,2.67
2023-05-03T12:28:00.040Z,2.38
2023-05-03T12:30:17.538Z,2.63
2023-05-03T12:32:23.402Z,2.50
2023-05-03T12:34:34.933Z,2.40
2023-05-03T12:36:43.788Z,2.47
2023-05-03T12:38:56.283Z,2.30
2023-05-03T12:41:02.287Z,2.58
2023-05-03T12:43:10.836Z,2.00
2023-05-03T12:45:17.713Z,2.10
2023-05-03T12:47:28.910Z,2.92
2023-05-03T12:49:37.990Z,2.42
2023-05-03T12:51:49.171Z,2.30
2023-05-03T12:54:01.976Z,2.08
2023-05-03T12:56:12.990Z,2.47
2023-05-03T13:00:35.557Z,2.40
2023-05-03T13:03:21.092Z,2.25
2023-05-03T13:05:13.530Z,2.03
2023-05-03T13:07:29.649Z,1.80
2023-05-03T13:10:12.070Z,2.45
2023-05-03T13:12:02.779Z,1.83
2023-05-03T13:14:14.289Z,1.90
2023-05-03T13:16:20.136Z,1.88
2023-05-03T13:18:26.104Z,1.80
2023-05-03T13:20:31.422Z,2.72
2023-05-03T13:22:36.641Z,2.05
2023-05-03T13:24:42.275Z,1.63
2023-05-03T13:26:47.861Z,1.90
2023-05-03T13:28:52.940Z,1.98
2023-05-03T13:31:00.990Z,1.80
2023-05-03T13:33:06.265Z,2.05
2023-05-03T13:35:13.418Z,1.90
2023-05-03T13:37:20.098Z,3.28
2023-05-03T13:39:25.243Z,2.10
2023-05-03T13:41:30.795Z,3.45
2023-05-03T13:43:35.842Z,2.13
2023-05-03T13:45:41.141Z,2.30
2023-05-03T13:48:14.275Z,1.90
2023-05-03T13:50:15.087Z,2.40
2023-05-03T13:52:20.521Z,2.80
2023-05-03T13:54:25.673Z,1.90
2023-05-03T13:56:31.693Z,2.67
2023-05-03T13:58:37.964Z,2.15
2023-05-03T14:00:43.259Z,1.95
2023-05-03T14:02:51.974Z,1.75
2023-05-03T14:04:57.386Z,1.80
2023-05-03T14:07:03.315Z,2.08
2023-05-03T14:09:09.184Z,2.20
2023-05-03T14:11:18.013Z,1.50
2023-05-03T14:13:23.586Z,1.80
2023-05-03T14:15:29.013Z,2.13
2023-05-03T14:17:35.037Z,1.83
2023-05-03T14:19:43.151Z,2.10
2023-05-03T14:21:49.844Z,1.52
2023-05-03T14:23:57.146Z,1.60
2023-05-03T14:26:02.513Z,1.85
2023-05-03T14:28:08.034Z,2.20
2023-05-03T14:30:14.499Z,1.38
2023-05-03T14:32:20.076Z,1.73
2023-05-03T14:34:25.891Z,1.70
2023-05-03T14:36:36.347Z,1.73
2023-05-03T14:38:41.530Z,1.92
2023-05-03T14:40:46.684Z,1.90
2023-05-03T14:42:52.199Z,1.60
2023-05-03T14:44:57.848Z,1.60
2023-05-03T14:47:03.522Z,1.65
2023-05-03T14:49:09.075Z,1.60
2023-05-03T14:51:15.113Z,1.80
2023-05-03T14:53:23.112Z,1.50
2023-05-03T14:55:28.402Z,1.20
2023-05-03T14:57:34.067Z,1.52
2023-05-03T14:59:39.759Z,1.50
2023-05-03T15:01:44.844Z,1.42
2023-05-03T15:03:50.137Z,1.92
2023-05-03T15:05:55.153Z,1.63
2023-05-03T15:08:00.200Z,1.25
2023-05-03T15:10:10.259Z,1.45
2023-05-03T15:12:15.299Z,1.92
2023-05-03T15:14:20.646Z,1.42
2023-05-03T15:16:26.436Z,1.48
2023-05-03T15:18:31.490Z,2.03
2023-05-03T15:20:36.976Z,1.40
2023-05-03T15:22:42.246Z,1.50
2023-05-03T15:24:47.601Z,1.30
2023-05-03T15:26:55.220Z,1.50
2023-05-03T15:29:00.243Z,1.50
2023-05-03T15:31:05.301Z,1.55
2023-05-03T15:33:11.127Z,3.20
2023-05-03T15:35:16.613Z,1.75
2023-05-03T15:37:21.623Z,1.52
2023-05-03T15:39:26.683Z,1.73
2023-05-03T15:41:32.249Z,1.50
2023-05-03T15:43:39.871Z,1.95
2023-05-03T15:45:45.198Z,3.28
2023-05-03T15:47:50.362Z,1.70
2023-05-03T15:49:56.501Z,1.80
2023-05-03T15:52:01.642Z,1.60
2023-05-03T15:54:07.320Z,1.67
2023-05-03T15:56:12.333Z,1.67
2023-05-03T15:58:19.039Z,1.40
2023-05-03T16:00:28.062Z,1.35
2023-05-03T16:02:33.422Z,1.60
2023-05-03T16:04:39.917Z,1.70
2023-05-03T16:06:45.080Z,1.23
2023-05-03T16:08:50.125Z,1.35
2023-05-03T16:10:55.429Z,1.50
2023-05-03T16:13:00.487Z,1.58
2023-05-03T16:15:05.668Z,1.30
2023-05-03T16:17:15.591Z,1.50
2023-05-03T16:19:21.391Z,1.63
2023-05-03T16:21:27.092Z,1.95
2023-05-03T16:23:32.117Z,1.50
2023-05-03T16:25:37.129Z,1.45
2023-05-03T16:27:42.584Z,1.52
2023-05-03T16:29:47.681Z,1.80
2023-05-03T16:31:52.757Z,1.73
2023-05-03T16:34:00.574Z,1.98
2023-05-03T16:36:05.649Z,1.80
2023-05-03T16:38:10.688Z,1.50
2023-05-03T16:40:16.072Z,1.70
2023-05-03T16:42:21.835Z,1.67
2023-05-03T16:44:27.002Z,1.60
2023-05-03T16:46:34.039Z,2.05
2023-05-03T16:48:39.109Z,2.25
2023-05-03T16:50:48.437Z,1.65
2023-05-03T16:52:53.493Z,1.67
2023-05-03T16:54:58.543Z,2.22
2023-05-03T16:57:04.411Z,1.67
2023-05-03T16:59:09.433Z,1.90
2023-05-03T17:01:14.656Z,1.60
2023-05-03T17:03:19.882Z,1.50
2023-05-03T17:05:26.405Z,1.85
2023-05-03T17:07:34.146Z,1.98
2023-05-03T17:09:39.470Z,1.83
2023-05-03T17:11:44.487Z,2.00
2023-05-03T17:13:50.032Z,1.92
2023-05-03T17:15:55.060Z,2.13
2023-05-03T17:18:04.228Z,1.80
2023-05-03T17:20:12.992Z,1.80
2023-05-03T17:22:18.286Z,2.00
2023-05-03T17:24:27.592Z,1.80
2023-05-03T17:26:34.196Z,1.73
2023-05-03T17:28:40.248Z,2.25
2023-05-03T17:30:45.432Z,1.70
2023-05-03T17:32:50.458Z,2.05
2023-05-03T17:34:56.970Z,2.03
2023-05-03T17:37:02.206Z,1.60
2023-05-03T17:39:07.933Z,1.90
2023-05-03T17:41:15.544Z,1.85
2023-05-03T17:43:21.541Z,1.80
2023-05-03T17:45:28.771Z,2.22
2023-05-03T17:47:34.281Z,2.00
2023-05-03T17:49:39.373Z,2.10
2023-05-03T17:51:44.387Z,2.35
2023-05-03T17:53:49.639Z,2.30
2023-05-03T17:55:54.658Z,2.50
2023-05-03T17:58:03.135Z,2.25
2023-05-03T18:00:15.631Z,1.80
2023-05-03T18:02:21.792Z,1.95
2023-05-03T18:04:27.218Z,2.45
2023-05-03T18:06:32.632Z,2.25
2023-05-03T18:08:37.931Z,2.22
2023-05-03T18:10:45.312Z,2.38
2023-05-03T18:12:50.440Z,2.15
2023-05-03T18:14:59.709Z,2.13
2023-05-03T18:17:04.731Z,2.30
2023-05-03T18:19:10.099Z,2.20
2023-05-03T18:21:15.372Z,2.47
2023-05-03T18:23:20.404Z,2.72
2023-05-03T18:25:25.988Z,2.25
2023-05-03T18:27:31.495Z,2.72
2023-05-03T18:29:36.743Z,2.67
2023-05-03T18:31:44.988Z,2.97
2023-05-03T18:33:50.089Z,2.67
2023-05-03T18:35:56.141Z,2.60
2023-05-03T18:38:01.238Z,2.90
2023-05-03T18:40:07.475Z,2.78
2023-05-03T18:42:13.150Z,2.00
2023-05-03T18:44:18.416Z,2.45
2023-05-03T18:46:23.818Z,2.33
2023-05-03T18:48:31.583Z,2.40
2023-05-03T18:50:38.429Z,1.85
2023-05-03T18:52:43.847Z,2.03
2023-05-03T18:54:49.783Z,2.00
2023-05-03T18:56:55.497Z,2.17
2023-05-03T18:59:00.853Z,2.20
2023-05-03T19:01:06.881Z,2.70
2023-05-03T19:03:12.324Z,2.40
2023-05-03T19:05:20.172Z,2.35
2023-05-03T19:07:25.781Z,2.42
2023-05-03T19:09:30.856Z,2.60
2023-05-03T19:11:36.269Z,2.78
2023-05-03T19:13:42.293Z,2.35
2023-05-03T19:15:47.296Z,2.40
2023-05-03T19:17:52.302Z,2.25
2023-05-03T19:19:57.325Z,2.88
2023-05-03T19:22:05.728Z,2.67
2023-05-03T19:24:14.310Z,2.60
2023-05-03T19:26:19.316Z,2.80
2023-05-03T19:28:24.333Z,2.42
2023-05-03T19:30:29.353Z,2.65
2023-05-03T19:32:37.052Z,2.50
2023-05-03T19:34:42.235Z,2.30
2023-05-03T19:36:47.243Z,2.88
2023-05-03T19:38:54.824Z,3.00
2023-05-03T19:41:00.540Z,2.65
2023-05-03T19:43:06.651Z,2.67
2023-05-03T19:45:13.191Z,3.13
2023-05-03T19:47:18.193Z,2.80
2023-05-03T19:49:24.059Z,3.03
2023-05-03T19:51:29.528Z,3.05
2023-05-03T19:53:35.099Z,2.97
2023-05-03T19:55:42.739Z,2.38
2023-05-03T19:57:47.759Z,2.70
2023-05-03T19:59:52.942Z,2.90
2023-05-03T20:01:58.023Z,3.40
2023-05-03T20:04:03.556Z,3.03
2023-05-03T20:06:09.102Z,2.92
2023-05-03T20:08:14.625Z,3.40
2023-05-03T20:10:19.904Z,3.60
2023-05-03T20:12:27.577Z,2.88
2023-05-03T20:14:32.628Z,2.83
2023-05-03T20:16:39.363Z,3.30
2023-05-03T20:18:45.813Z,3.10
2023-05-03T20:20:50.907Z,3.50
2023-05-03T20:22:55.976Z,3.97
2023-05-03T20:25:01.117Z,3.03
2023-05-03T20:27:06.737Z,3.35
2023-05-03T20:29:14.583Z,3.05
2023-05-03T20:31:20.051Z,3.47
2023-05-03T20:33:25.093Z,4.15
2023-05-03T20:35:30.183Z,3.95
2023-05-03T20:37:36.424Z,3.78
2023-05-03T20:39:43.403Z,3.40
2023-05-03T20:41:48.522Z,3.50
2023-05-03T20:43:55.416Z,3.30
2023-05-03T20:46:04.053Z,3.28
2023-05-03T20:48:09.779Z,3.42
2023-05-03T20:50:15.043Z,3.88
2023-05-03T20:52:20.123Z,4.15
2023-05-03T20:54:25.166Z,3.67
2023-05-03T20:56:30.246Z,3.67
2023-05-03T20:58:35.465Z,3.47
2023-05-03T21:00:40.480Z,4.28
2023-05-03T21:02:53.364Z,4.93
2023-05-03T21:04:58.659Z,4.75
2023-05-03T21:07:03.979Z,4.57
2023-05-03T21:09:08.984Z,5.13
2023-05-03T21:11:13.992Z,4.65
2023-05-03T21:13:19.119Z,5.13
2023-05-03T21:15:24.212Z,5.15
2023-05-03T21:17:29.327Z,4.90
2023-05-03T21:19:36.957Z,5.05
2023-05-03T21:21:42.397Z,5.03
2023-05-03T21:23:47.605Z,5.50
2023-05-03T21:25:55.194Z,6.05
2023-05-03T21:28:01.107Z,5.63
2023-05-03T21:30:06.551Z,6.30
2023-05-03T21:32:11.785Z,5.50
2023-05-03T21:34:16.929Z,5.53
2023-05-03T21:36:24.663Z,6.15
2023-05-03T21:38:29.748Z,5.75
2023-05-03T21:40:34.827Z,6.32
2023-05-03T21:42:39.934Z,6.47
2023-05-03T21:44:44.942Z,6.85
2023-05-03T21:46:50.007Z,7.13
2023-05-03T21:48:55.105Z,5.72
2023-05-03T21:51:00.173Z,5.53
2023-05-03T21:53:07.945Z,5.20
2023-05-03T21:55:15.513Z,6.03
2023-05-03T21:57:20.756Z,5.35
2023-05-03T21:59:25.830Z,5.90
2023-05-03T22:01:31.622Z,6.00
2023-05-03T22:03:36.808Z,6.60
2023-05-03T22:05:43.286Z,6.30
2023-05-03T22:07:50.534Z,6.22
2023-05-03T22:09:58.151Z,6.30
2023-05-03T22:12:19.143Z,6.90
2023-05-03T22:14:27.584Z,6.68
2023-05-03T22:16:33.210Z,5.95
2023-05-03T22:18:38.697Z,6.75
2023-05-03T22:20:43.851Z,6.82
2023-05-03T22:22:49.110Z,6.55
2023-05-03T22:24:54.137Z,6.32
2023-05-03T22:27:02.543Z,6.47
2023-05-03T22:29:08.113Z,7.07
2023-05-03T22:31:13.732Z,6.57
2023-05-03T22:33:19.288Z,6.18
2023-05-03T22:35:24.330Z,6.25
2023-05-03T22:37:29.616Z,5.93
2023-05-03T22:39:34.636Z,5.78
2023-05-03T22:41:39.937Z,6.85
2023-05-03T22:43:47.866Z,6.32
2023-05-03T22:45:52.916Z,6.18
2023-05-03T22:47:58.749Z,6.18
2023-05-03T22:50:04.130Z,7.32
2023-05-03T22:52:09.349Z,6.07
2023-05-03T22:54:14.597Z,6.57
2023-05-03T22:56:19.641Z,7.07
2023-05-03T22:58:26.072Z,6.47
2023-05-03T23:00:34.149Z,7.43
2023-05-03T23:02:39.296Z,6.88
2023-05-03T23:04:44.768Z,7.03
2023-05-03T23:06:49.820Z,7.60
2023-05-03T23:08:55.093Z,7.90
2023-05-03T23:11:00.281Z,7.45
2023-05-03T23:13:05.453Z,7.15
2023-05-03T23:15:12.280Z,8.05
2023-05-03T23:17:20.024Z,7.85
2023-05-03T23:19:25.035Z,7.32
2023-05-03T23:21:30.335Z,7.32
2023-05-03T23:23:35.658Z,7.93
2023-05-03T23:25:40.931Z,7.22
2023-05-03T23:27:46.446Z,7.75
2023-05-03T23:29:53.383Z,7.40
2023-05-03T23:31:58.910Z,7.63
2023-05-03T23:34:07.687Z,7.57
2023-05-03T23:36:13.165Z,8.07
2023-05-03T23:38:18.289Z,7.97
2023-05-03T23:40:24.288Z,6.80
2023-05-03T23:42:29.342Z,6.68
2023-05-03T23:44:46.918Z,7.40
2023-05-03T23:46:59.642Z,8.25
2023-05-03T23:49:07.680Z,7.55
2023-05-03T23:51:13.211Z,8.45
2023-05-03T23:53:18.238Z,6.57
2023-05-03T23:55:24.020Z,7.22
2023-05-03T23:57:29.062Z,6.15
2023-05-03T23:59:34.108Z,8.30
